createdAt,value
2023-05-02T00:00:29.509Z,81.10
2023-05-02T00:02:56.214Z,80.65
2023-05-02T00:05:23.330Z,86.72
2023-05-02T00:07:51.477Z,81.70
2023-05-02T00:10:18.870Z,86.20
2023-05-02T00:12:45.403Z,81.05
2023-05-02T00:15:11.969Z,73.68
2023-05-02T00:17:43.714Z,75.00
2023-05-02T00:20:11.704Z,79.10
2023-05-02T00:22:38.753Z,75.55
2023-05-02T00:25:06.543Z,78.60
2023-05-02T00:27:33.643Z,79.75
2023-05-02T00:30:03.245Z,82.07
2023-05-02T00:32:30.054Z,81.40
2023-05-02T00:34:56.839Z,83.50
2023-05-02T00:37:26.760Z,77.43
2023-05-02T00:39:53.232Z,80.97
2023-05-02T00:42:19.833Z,78.97
2023-05-02T00:44:47.001Z,80.90
2023-05-02T00:47:15.175Z,81.97
2023-05-02T00:49:42.177Z,78.50
2023-05-02T00:52:09.651Z,80.25
2023-05-02T00:54:38.978Z,82.32
2023-05-02T00:57:05.856Z,79.93
2023-05-02T00:59:34.186Z,79.93
2023-05-02T01:02:13.771Z,80.85
2023-05-02T01:04:59.055Z,98.32
2023-05-02T01:07:44.514Z,109.18
2023-05-02T01:10:55.749Z,126.25
2023-05-02T01:13:26.304Z,124.68
2023-05-02T01:15:56.140Z,119.82
2023-05-02T01:18:30.521Z,111.15
2023-05-02T01:21:08.545Z,123.07
2023-05-02T01:24:07.390Z,110.53
2023-05-02T01:26:47.399Z,112.10
2023-05-02T01:29:16.274Z,99.57
2023-05-02T01:31:45.771Z,96.68
2023-05-02T01:34:12.591Z,99.55
2023-05-02T01:36:46.576Z,91.05
2023-05-02T01:39:16.192Z,84.78
2023-05-02T01:41:43.604Z,75.57
2023-05-02T01:44:11.728Z,79.00
2023-05-02T01:46:42.883Z,70.13
2023-05-02T01:49:10.856Z,70.85
2023-05-02T01:51:51.570Z,63.38
2023-05-02T01:54:22.051Z,74.28
2023-05-02T01:56:50.034Z,67.40
2023-05-02T01:59:19.945Z,68.38
2023-05-02T02:01:47.387Z,73.40
2023-05-02T02:04:15.713Z,73.28
2023-05-02T02:06:46.629Z,79.50
2023-05-02T02:09:13.341Z,72.28
2023-05-02T02:11:59.914Z,73.85
2023-05-02T02:14:31.701Z,78.03
2023-05-02T02:17:01.923Z,63.03
2023-05-02T02:19:30.868Z,67.75
2023-05-02T02:21:59.093Z,63.85
2023-05-02T02:24:26.920Z,63.20
2023-05-02T02:26:53.554Z,64.85
2023-05-02T02:29:20.478Z,58.55
2023-05-02T02:31:47.249Z,60.80
2023-05-02T02:34:13.932Z,57.13
2023-05-02T02:36:49.061Z,52.85
2023-05-02T02:39:36.290Z,55.08
2023-05-02T02:42:14.827Z,55.25
2023-05-02T02:44:56.976Z,48.90
2023-05-02T02:48:03.540Z,51.67
2023-05-02T02:58:35.717Z,45.90
2023-05-02T03:01:06.628Z,46.08
2023-05-02T03:03:35.767Z,48.00
2023-05-02T03:06:04.779Z,43.20
2023-05-02T03:08:50.477Z,52.38
2023-05-02T03:11:17.079Z,51.88
2023-05-02T03:13:52.926Z,46.70
2023-05-02T03:17:01.614Z,46.22
2023-05-02T03:20:07.016Z,45.38
2023-05-02T03:22:33.571Z,53.15
2023-05-02T03:25:00.056Z,52.05
2023-05-02T03:30:07.689Z,47.90
2023-05-02T03:33:32.148Z,51.08
2023-05-02T03:57:32.857Z,53.72
2023-05-02T04:04:08.774Z,44.95
2023-05-02T04:06:35.590Z,38.20
2023-05-02T04:09:02.399Z,44.22
2023-05-02T04:11:28.907Z,45.08
2023-05-02T04:13:55.553Z,50.42
2023-05-02T04:16:22.494Z,45.80
2023-05-02T04:18:49.038Z,40.80
2023-05-02T04:21:15.951Z,40.63
2023-05-02T04:23:42.595Z,40.58
2023-05-02T04:26:09.266Z,42.85
2023-05-02T04:28:38.544Z,43.85
2023-05-02T04:31:05.298Z,43.33
2023-05-02T04:33:32.874Z,45.00
2023-05-02T04:35:59.418Z,48.97
2023-05-02T04:38:26.002Z,49.17
2023-05-02T04:40:52.675Z,51.40
2023-05-02T04:43:19.269Z,48.45
2023-05-02T04:45:47.362Z,47.38
2023-05-02T04:48:14.053Z,47.97
2023-05-02T04:50:40.523Z,44.65
2023-05-02T04:53:09.265Z,48.03
2023-05-02T04:55:35.875Z,46.85
2023-05-02T04:58:02.362Z,49.67
2023-05-02T05:00:29.310Z,46.47
2023-05-02T05:02:55.861Z,54.70
2023-05-02T05:05:22.967Z,50.03
2023-05-02T05:07:49.559Z,52.38
2023-05-02T05:10:16.243Z,53.60
2023-05-02T05:12:43.066Z,50.63
2023-05-02T05:15:10.166Z,50.88
2023-05-02T05:17:36.739Z,50.65
2023-05-02T05:20:03.850Z,51.22
2023-05-02T05:22:38.717Z,55.03
2023-05-02T05:25:05.872Z,49.58
2023-05-02T05:27:34.613Z,48.30
2023-05-02T05:30:01.779Z,50.72
2023-05-02T05:32:29.481Z,43.03
2023-05-02T05:34:57.342Z,43.45
2023-05-02T05:37:23.886Z,46.92
2023-05-02T05:39:50.668Z,44.00
2023-05-02T05:42:17.075Z,46.75
2023-05-02T05:44:43.677Z,39.85
2023-05-02T05:47:10.248Z,36.95
2023-05-02T05:49:38.959Z,36.00
2023-05-02T05:52:05.794Z,32.65
2023-05-02T05:54:32.274Z,31.58
2023-05-02T05:57:01.502Z,31.50
2023-05-02T05:59:28.069Z,28.67
2023-05-02T06:01:57.468Z,30.30
2023-05-02T06:04:24.015Z,27.45
2023-05-02T06:06:51.657Z,27.67
2023-05-02T06:09:18.121Z,31.52
2023-05-02T06:11:44.728Z,27.88
2023-05-02T06:14:11.430Z,29.30
2023-05-02T06:16:38.174Z,28.75
2023-05-02T06:19:04.802Z,25.30
2023-05-02T06:21:31.458Z,24.05
2023-05-02T06:23:58.254Z,24.02
2023-05-02T06:26:24.816Z,27.05
2023-05-02T06:28:51.494Z,26.38
2023-05-02T06:31:18.320Z,22.27
2023-05-02T06:33:44.851Z,21.83
2023-05-02T06:36:12.692Z,24.17
2023-05-02T06:38:39.193Z,23.42
2023-05-02T06:41:05.767Z,24.65
2023-05-02T06:43:32.901Z,22.27
2023-05-02T06:46:01.284Z,23.52
2023-05-02T06:48:28.080Z,23.67
2023-05-02T06:50:54.674Z,21.60
2023-05-02T06:53:24.112Z,20.63
2023-05-02T06:55:50.848Z,21.98
2023-05-02T06:58:21.122Z,23.73
2023-05-02T07:00:50.897Z,22.20
2023-05-02T07:03:17.658Z,20.95
2023-05-02T07:05:44.404Z,17.90
2023-05-02T07:08:11.518Z,24.77
2023-05-02T07:10:40.850Z,19.88
2023-05-02T07:13:08.782Z,24.00
2023-05-02T07:15:35.210Z,22.90
2023-05-02T07:18:04.985Z,23.70
2023-05-02T07:20:31.611Z,24.48
2023-05-02T07:23:04.629Z,27.33
2023-05-02T07:25:31.234Z,26.35
2023-05-02T07:27:57.946Z,28.60
2023-05-02T07:30:24.436Z,28.08
2023-05-02T07:32:51.236Z,23.15
2023-05-02T07:35:18.254Z,22.98
2023-05-02T07:37:44.787Z,20.80
2023-05-02T07:40:11.518Z,22.92
2023-05-02T07:42:38.129Z,23.33
2023-05-02T07:45:05.183Z,22.02
2023-05-02T07:47:35.017Z,24.40
2023-05-02T07:50:03.081Z,23.25
2023-05-02T07:52:33.187Z,20.38
2023-05-02T07:54:59.758Z,19.15
2023-05-02T07:58:01.243Z,22.13
2023-05-02T08:00:30.891Z,18.52
2023-05-02T08:02:59.684Z,17.55
2023-05-02T08:05:27.687Z,17.52
2023-05-02T08:07:56.449Z,17.77
2023-05-02T08:10:24.367Z,14.63
2023-05-02T08:12:51.113Z,15.23
2023-05-02T08:15:17.580Z,14.88
2023-05-02T08:17:44.134Z,14.55
2023-05-02T08:20:11.107Z,13.05
2023-05-02T08:22:37.893Z,12.25
2023-05-02T08:25:07.865Z,12.93
2023-05-02T08:27:35.522Z,14.93
2023-05-02T08:30:05.031Z,14.73
2023-05-02T08:32:32.937Z,16.20
2023-05-02T08:35:01.022Z,14.57
2023-05-02T08:37:27.529Z,14.75
2023-05-02T08:39:54.336Z,16.50
2023-05-02T08:42:25.010Z,16.75
2023-05-02T08:44:54.453Z,15.00
2023-05-02T08:47:23.008Z,16.20
2023-05-02T08:49:50.507Z,15.65
2023-05-02T08:52:23.399Z,17.15
2023-05-02T08:54:57.054Z,18.35
2023-05-02T08:57:23.542Z,18.35
2023-05-02T08:59:55.249Z,17.17
2023-05-02T09:02:52.508Z,17.75
2023-05-02T09:05:23.962Z,18.77
2023-05-02T09:07:51.962Z,18.58
2023-05-02T09:10:18.677Z,20.25
2023-05-02T09:12:45.388Z,19.23
2023-05-02T09:15:21.523Z,20.23
2023-05-02T09:17:50.188Z,22.65
2023-05-02T09:20:17.421Z,22.92
2023-05-02T09:22:52.471Z,22.27
2023-05-02T09:25:22.520Z,20.38
2023-05-02T09:27:56.796Z,22.65
2023-05-02T09:30:25.395Z,23.27
2023-05-02T09:32:55.899Z,22.90
2023-05-02T09:35:30.682Z,24.25
2023-05-02T09:37:59.457Z,19.10
2023-05-02T09:40:27.839Z,20.73
2023-05-02T09:42:55.884Z,19.88
2023-05-02T09:45:24.781Z,19.60
2023-05-02T09:47:59.327Z,21.27
2023-05-02T09:50:37.670Z,19.52
2023-05-02T09:53:13.441Z,20.52
2023-05-02T09:55:43.098Z,21.58
2023-05-02T09:58:24.084Z,19.85
2023-05-02T10:00:54.801Z,21.67
2023-05-02T10:03:26.667Z,21.63
2023-05-02T10:05:56.574Z,19.48
2023-05-02T10:08:28.296Z,21.52
2023-05-02T10:10:57.540Z,19.77
2023-05-02T10:13:27.308Z,18.65
2023-05-02T10:16:02.794Z,20.25
2023-05-02T10:18:40.914Z,17.45
2023-05-02T10:21:27.921Z,15.00
2023-05-02T10:23:54.937Z,12.38
2023-05-02T10:26:26.362Z,11.00
2023-05-02T10:28:56.371Z,11.90
2023-05-02T10:31:23.150Z,8.77
2023-05-02T10:33:52.342Z,5.18
2023-05-02T10:36:23.610Z,5.68
2023-05-02T10:38:51.170Z,7.68
2023-05-02T10:41:26.964Z,8.50
2023-05-02T10:43:54.043Z,5.97
2023-05-02T10:46:37.410Z,5.47
2023-05-02T10:49:11.526Z,6.38
2023-05-02T10:51:43.549Z,5.00
2023-05-02T10:54:20.755Z,4.95
2023-05-02T10:57:05.946Z,5.82
2023-05-02T10:59:37.301Z,2.72
2023-05-02T11:02:07.142Z,2.55
2023-05-02T11:05:07.219Z,2.22
2023-05-02T11:07:36.207Z,3.65
2023-05-02T11:10:18.198Z,5.50
2023-05-02T11:12:49.152Z,3.90
2023-05-02T11:15:38.510Z,4.85
2023-05-02T11:18:12.564Z,4.20
2023-05-02T11:21:38.937Z,5.22
2023-05-02T11:24:38.844Z,4.70
2023-05-02T11:27:30.526Z,4.25
2023-05-02T11:29:58.915Z,3.67
2023-05-02T11:32:46.621Z,3.40
2023-05-02T11:35:18.913Z,3.33
2023-05-02T11:37:59.320Z,3.97
2023-05-02T11:40:27.609Z,5.05
2023-05-02T11:42:54.746Z,3.53
2023-05-02T11:45:21.584Z,3.72
2023-05-02T11:47:49.776Z,3.08
2023-05-02T11:50:16.934Z,3.20
2023-05-02T11:52:45.384Z,2.78
2023-05-02T11:55:14.347Z,2.13
2023-05-02T11:57:41.246Z,1.80
2023-05-02T12:00:08.462Z,1.90
2023-05-02T12:02:45.715Z,2.35
2023-05-02T12:05:14.169Z,3.15
2023-05-02T12:07:45.939Z,2.70
2023-05-02T12:10:13.782Z,2.70
2023-05-02T12:12:44.848Z,2.63
2023-05-02T12:15:12.704Z,2.50
2023-05-02T12:17:42.191Z,2.67
2023-05-02T12:20:11.078Z,5.15
2023-05-02T12:22:38.033Z,3.80
2023-05-02T12:25:05.742Z,3.72
2023-05-02T12:27:33.428Z,2.80
2023-05-02T12:30:00.815Z,2.33
2023-05-02T12:32:32.356Z,2.83
2023-05-02T12:35:00.302Z,4.82
2023-05-02T12:37:27.657Z,2.42
2023-05-02T12:39:55.716Z,2.50
2023-05-02T12:42:24.546Z,2.90
2023-05-02T12:44:54.238Z,2.88
2023-05-02T12:47:22.899Z,3.78
2023-05-02T12:49:52.920Z,4.50
2023-05-02T12:52:21.041Z,3.35
2023-05-02T12:54:47.722Z,4.35
2023-05-02T12:57:24.888Z,4.32
2023-05-02T12:59:58.797Z,4.55
2023-05-02T13:02:25.973Z,3.05
2023-05-02T13:04:52.870Z,4.50
2023-05-02T13:07:19.577Z,3.72
2023-05-02T13:09:46.054Z,3.40
2023-05-02T13:12:12.836Z,3.55
2023-05-02T13:14:39.453Z,3.50
2023-05-02T13:17:08.664Z,4.93
2023-05-02T13:19:35.453Z,3.75
2023-05-02T13:22:02.003Z,3.65
2023-05-02T13:24:28.506Z,4.18
2023-05-02T13:26:54.906Z,3.63
2023-05-02T13:29:21.361Z,3.60
2023-05-02T13:31:48.539Z,3.17
2023-05-02T13:34:16.288Z,4.55
2023-05-02T13:36:46.280Z,6.28
2023-05-02T13:39:13.913Z,4.32
2023-05-02T13:41:40.642Z,4.95
2023-05-02T13:44:07.116Z,6.57
2023-05-02T13:46:36.760Z,5.25
2023-05-02T13:49:04.262Z,5.45
2023-05-02T13:51:33.055Z,5.47
2023-05-02T13:54:04.192Z,10.18
2023-05-02T13:56:31.801Z,7.55
2023-05-02T13:58:58.417Z,4.78
2023-05-02T14:01:26.900Z,4.15
2023-05-02T14:03:53.734Z,4.60
2023-05-02T14:06:20.405Z,4.97
2023-05-02T14:08:46.972Z,4.72
2023-05-02T14:11:13.435Z,4.20
2023-05-02T14:13:39.939Z,5.05
2023-05-02T14:16:06.507Z,3.80
2023-05-02T14:23:54.445Z,6.72
2023-05-02T14:26:21.326Z,5.78
2023-05-02T14:28:47.923Z,4.20
2023-05-02T14:31:16.518Z,5.25
2023-05-02T14:33:43.425Z,5.20
2023-05-02T14:36:10.190Z,4.30
2023-05-02T14:38:38.715Z,3.85
2023-05-02T14:41:14.803Z,4.13
2023-05-02T14:43:43.970Z,4.57
2023-05-02T14:46:10.518Z,7.47
2023-05-02T14:48:37.134Z,4.00
2023-05-02T14:51:04.815Z,4.57
2023-05-02T14:53:34.176Z,4.15
2023-05-02T14:56:00.794Z,3.20
2023-05-02T14:58:34.711Z,2.72
2023-05-02T15:01:03.315Z,3.03
2023-05-02T15:03:30.480Z,3.72
2023-05-02T15:05:57.498Z,4.78
2023-05-02T15:08:25.409Z,2.55
2023-05-02T15:10:51.919Z,2.38
2023-05-02T15:13:18.781Z,2.92
2023-05-02T15:15:47.007Z,4.28
2023-05-02T15:18:13.701Z,3.03
2023-05-02T15:20:40.959Z,3.40
2023-05-02T15:23:07.517Z,2.92
2023-05-02T15:25:34.096Z,2.83
2023-05-02T15:28:02.482Z,3.00
2023-05-02T15:30:28.877Z,4.43
2023-05-02T15:32:55.630Z,5.50
2023-05-02T15:35:22.226Z,3.97
2023-05-02T15:37:50.597Z,2.70
2023-05-02T15:40:17.155Z,3.95
2023-05-02T15:42:43.728Z,3.20
2023-05-02T15:45:16.235Z,2.90
2023-05-02T15:47:42.830Z,3.72
2023-05-02T15:50:11.046Z,5.47
2023-05-02T15:52:37.474Z,3.35
2023-05-02T15:55:05.129Z,2.60
2023-05-02T15:57:31.615Z,2.55
2023-05-02T15:59:58.325Z,3.47
2023-05-02T16:02:25.043Z,3.83
2023-05-02T16:04:51.867Z,3.25
2023-05-02T16:07:18.434Z,3.08
2023-05-02T16:09:46.357Z,3.47
2023-05-02T16:12:13.639Z,4.03
2023-05-02T16:14:40.086Z,3.33
2023-05-02T16:17:06.641Z,2.85
2023-05-02T16:19:33.164Z,5.00
2023-05-02T16:22:00.297Z,3.13
2023-05-02T16:24:27.025Z,3.08
2023-05-02T16:26:55.758Z,2.80
2023-05-02T16:29:22.551Z,5.18
2023-05-02T16:31:49.000Z,4.68
2023-05-02T16:34:15.553Z,4.57
2023-05-02T16:36:42.350Z,2.58
2023-05-02T16:39:10.745Z,2.88
2023-05-02T16:41:37.725Z,3.65
2023-05-02T16:44:04.688Z,4.55
2023-05-02T16:46:31.862Z,4.28
2023-05-02T16:48:58.757Z,3.60
2023-05-02T16:51:25.189Z,5.30
2023-05-02T16:53:51.673Z,7.05
2023-05-02T16:56:18.234Z,5.15
2023-05-02T16:58:44.909Z,4.28
2023-05-02T17:01:11.819Z,4.15
2023-05-02T17:03:41.876Z,3.15
2023-05-02T17:06:08.699Z,3.30
2023-05-02T17:08:35.755Z,2.20
2023-05-02T17:11:02.488Z,2.53
2023-05-02T17:13:30.070Z,1.88
2023-05-02T17:15:57.545Z,2.70
2023-05-02T17:18:24.581Z,2.20
2023-05-02T17:20:51.551Z,3.45
2023-05-02T17:23:18.302Z,5.03
2023-05-02T17:25:45.124Z,3.28
2023-05-02T17:28:12.101Z,6.38
2023-05-02T17:30:39.031Z,3.78
2023-05-02T17:33:06.034Z,5.15
2023-05-02T17:35:32.814Z,4.25
2023-05-02T17:37:59.457Z,3.63
2023-05-02T17:40:26.971Z,4.80
2023-05-02T17:42:53.559Z,2.75
2023-05-02T17:45:20.260Z,2.75
2023-05-02T17:47:47.248Z,7.18
2023-05-02T17:50:19.943Z,8.43
2023-05-02T17:52:46.667Z,5.35
2023-05-02T17:55:13.317Z,4.45
2023-05-02T17:57:43.258Z,5.00
2023-05-02T18:00:10.541Z,5.53
2023-05-02T18:02:37.916Z,6.35
2023-05-02T18:05:07.081Z,5.13
2023-05-02T18:07:34.872Z,2.72
2023-05-02T18:10:04.202Z,3.90
2023-05-02T18:12:33.603Z,5.20
2023-05-02T18:15:02.911Z,7.18
2023-05-02T18:17:29.899Z,6.30
2023-05-02T18:19:56.606Z,8.25
2023-05-02T18:22:23.102Z,7.38
2023-05-02T18:24:50.100Z,4.82
2023-05-02T18:27:17.508Z,5.70
2023-05-02T18:29:44.012Z,4.18
2023-05-02T18:32:10.542Z,6.47
2023-05-02T18:34:38.743Z,6.78
2023-05-02T18:37:05.914Z,5.28
2023-05-02T18:39:34.929Z,8.50
2023-05-02T18:42:05.585Z,8.38
2023-05-02T18:44:32.137Z,9.77
2023-05-02T18:46:59.357Z,4.95
2023-05-02T18:49:26.275Z,6.57
2023-05-02T18:51:54.688Z,8.32
2023-05-02T18:54:23.324Z,5.57
2023-05-02T18:56:50.048Z,6.38
2023-05-02T18:59:16.729Z,7.28
2023-05-02T19:01:50.245Z,9.18
2023-05-02T19:04:16.766Z,7.20
2023-05-02T19:06:43.336Z,10.80
2023-05-02T19:09:09.893Z,9.77
2023-05-02T19:11:36.641Z,9.45
2023-05-02T19:14:03.652Z,9.13
2023-05-02T19:16:31.716Z,7.28
2023-05-02T19:18:59.445Z,12.80
2023-05-02T19:21:26.174Z,7.68
2023-05-02T19:23:52.859Z,11.98
2023-05-02T19:26:19.969Z,9.98
2023-05-02T19:28:46.550Z,8.07
2023-05-02T19:31:18.418Z,10.10
2023-05-02T19:33:52.163Z,6.55
2023-05-02T19:36:20.100Z,8.18
2023-05-02T19:38:52.212Z,7.35
2023-05-02T19:41:18.914Z,7.72
2023-05-02T19:43:45.833Z,7.38
2023-05-02T19:46:14.242Z,9.30
2023-05-02T19:48:40.761Z,10.75
2023-05-02T19:51:07.578Z,11.18
2023-05-02T19:53:35.991Z,10.50
2023-05-02T19:56:10.589Z,11.25
2023-05-02T19:58:37.146Z,12.65
2023-05-02T20:01:03.816Z,9.98
2023-05-02T20:03:30.708Z,11.23
2023-05-02T20:05:58.467Z,9.48
2023-05-02T20:08:27.948Z,9.23
2023-05-02T20:10:55.726Z,7.80
2023-05-02T20:13:22.210Z,8.68
2023-05-02T20:15:52.946Z,9.68
2023-05-02T20:18:20.432Z,9.95
2023-05-02T20:20:46.963Z,8.30
2023-05-02T20:23:13.758Z,11.75
2023-05-02T20:25:41.896Z,13.48
2023-05-02T20:28:09.279Z,9.15
2023-05-02T20:30:35.893Z,14.50
2023-05-02T20:33:13.912Z,9.80
2023-05-02T20:35:44.808Z,7.70
2023-05-02T20:38:12.772Z,10.15
2023-05-02T20:40:40.658Z,8.93
2023-05-02T20:43:09.904Z,9.15
2023-05-02T20:45:36.361Z,13.50
2023-05-02T20:48:02.933Z,9.32
2023-05-02T20:50:31.548Z,9.60
2023-05-02T20:52:58.231Z,12.13
2023-05-02T20:55:24.833Z,10.35
2023-05-02T20:57:53.124Z,9.30
2023-05-02T21:00:22.462Z,14.52
2023-05-02T21:02:49.330Z,8.75
2023-05-02T21:05:16.123Z,11.25
2023-05-02T21:07:42.971Z,8.20
2023-05-02T21:10:10.052Z,9.65
2023-05-02T21:12:36.681Z,9.40
2023-05-02T21:15:06.994Z,11.82
2023-05-02T21:17:33.525Z,14.25
2023-05-02T21:20:00.212Z,13.32
2023-05-02T21:22:27.044Z,8.65
2023-05-02T21:24:53.513Z,11.15
2023-05-02T21:27:20.121Z,11.23
2023-05-02T21:29:46.844Z,10.70
2023-05-02T21:32:13.788Z,11.15
2023-05-02T21:34:41.007Z,13.10
2023-05-02T21:37:07.492Z,12.18
2023-05-02T21:39:34.016Z,9.88
2023-05-02T21:42:01.493Z,15.32
2023-05-02T21:44:28.166Z,14.57
2023-05-02T21:46:54.871Z,9.75
2023-05-02T21:49:21.836Z,12.32
2023-05-02T21:51:49.288Z,12.20
2023-05-02T21:54:15.802Z,10.32
2023-05-02T21:56:43.028Z,12.10
2023-05-02T21:59:10.053Z,16.73
2023-05-02T22:01:36.562Z,11.52
2023-05-02T22:04:02.999Z,10.88
2023-05-02T22:06:31.480Z,13.63
2023-05-02T22:08:58.061Z,10.95
2023-05-02T22:11:25.760Z,10.63
2023-05-02T22:13:54.378Z,19.55
2023-05-02T22:16:21.427Z,14.57
2023-05-02T22:18:52.248Z,14.13
2023-05-02T22:21:18.929Z,15.02
2023-05-02T22:23:45.542Z,13.75
2023-05-02T22:26:12.049Z,15.15
2023-05-02T22:28:38.504Z,14.52
2023-05-02T22:31:05.415Z,12.95
2023-05-02T22:33:33.425Z,12.55
2023-05-02T22:35:59.846Z,11.18
2023-05-02T22:38:26.386Z,15.90
2023-05-02T22:40:52.806Z,17.30
2023-05-02T22:43:19.406Z,14.27
2023-05-02T22:45:46.558Z,12.88
2023-05-02T22:48:13.120Z,13.43
2023-05-02T22:50:40.164Z,16.05
2023-05-02T22:53:09.398Z,14.73
2023-05-02T22:55:38.918Z,14.85
2023-05-02T22:58:11.743Z,12.77
2023-05-02T23:00:39.550Z,13.30
2023-05-02T23:03:06.163Z,13.15
2023-05-02T23:05:32.732Z,13.60
2023-05-02T23:07:59.417Z,14.23
2023-05-02T23:10:25.949Z,11.88
2023-05-02T23:12:52.453Z,16.20
2023-05-02T23:15:20.881Z,15.05
2023-05-02T23:17:47.449Z,12.73
2023-05-02T23:20:14.409Z,15.50
2023-05-02T23:22:45.753Z,13.10
2023-05-02T23:25:13.084Z,11.55
2023-05-02T23:27:39.655Z,14.73
2023-05-02T23:30:08.313Z,19.45
2023-05-02T23:32:35.193Z,13.02
2023-05-02T23:35:01.935Z,16.52
2023-05-02T23:37:29.100Z,15.57
2023-05-02T23:39:58.092Z,18.25
2023-05-02T23:42:24.826Z,13.63
2023-05-02T23:44:53.689Z,15.55
2023-05-02T23:47:20.146Z,15.52
2023-05-02T23:49:46.547Z,17.50
2023-05-02T23:52:13.080Z,15.43
2023-05-02T23:54:41.485Z,15.27
2023-05-02T23:57:09.296Z,20.25
2023-05-02T23:59:36.177Z,17.25
